Schedule Details


Flight Number: CTN530
Departure: Franjo Tudman (LDZA) at 14:20
Arrival: Pulkovo (ULLI) at 18:00
Route: OBUTI?DCT?DIMLO?DCT?LEDVA?L156?SOPAV?T709?KOTEK?M866?GERVI?M857?BOKSU?M985?ERIVA?Y237?GATVA?Z494?NUMSU?M990?RISAT?R108?KOLET

Weather Information
LDZA 242130Z 00000KT 9999 FEW045 22/18 Q1021 NOSIG
ULLI 242130Z 26002MPS 9999 FEW046 13/09 Q1027 R28L/090060 NOSIG
Schedule Frequency

Route Map